sensor_id;sensor_type;location;lat;lon;timestamp;P1;durP1;ratioP1;P2;durP2;ratioP2
71513;SDS011;59335;46.652;21.272;2022-09-09T00:09:25;9.77;;;5.50;;
71513;SDS011;59335;46.652;21.272;2022-09-09T00:12:36;9.32;;;5.40;;
71513;SDS011;59335;46.652;21.272;2022-09-09T00:22:24;8.77;;;5.85;;
71513;SDS011;59335;46.652;21.272;2022-09-09T00:25:31;9.23;;;5.40;;
71513;SDS011;59335;46.652;21.272;2022-09-09T00:32:24;7.17;;;5.00;;
71513;SDS011;59335;46.652;21.272;2022-09-09T00:35:31;8.50;;;5.60;;
71513;SDS011;59335;46.652;21.272;2022-09-09T00:38:38;7.90;;;5.30;;
71513;SDS011;59335;46.652;21.272;2022-09-09T00:44:56;9.93;;;5.85;;
71513;SDS011;59335;46.652;21.272;2022-09-09T00:48:05;7.57;;;5.20;;
71513;SDS011;59335;46.652;21.272;2022-09-09T00:51:38;8.90;;;5.40;;
71513;SDS011;59335;46.652;21.272;2022-09-09T00:57:48;8.10;;;5.20;;
71513;SDS011;59335;46.652;21.272;2022-09-09T01:01:01;8.43;;;5.47;;
71513;SDS011;59335;46.652;21.272;2022-09-09T01:04:13;9.30;;;5.40;;
71513;SDS011;59335;46.652;21.272;2022-09-09T01:07:22;7.43;;;5.07;;
71513;SDS011;59335;46.652;21.272;2022-09-09T01:18:23;7.43;;;4.50;;
71513;SDS011;59335;46.652;21.272;2022-09-09T01:24:53;8.00;;;5.10;;
71513;SDS011;59335;46.652;21.272;2022-09-09T01:28:39;8.48;;;5.35;;
71513;SDS011;59335;46.652;21.272;2022-09-09T01:31:58;8.77;;;5.35;;
71513;SDS011;59335;46.652;21.272;2022-09-09T01:35:04;8.43;;;5.07;;
71513;SDS011;59335;46.652;21.272;2022-09-09T01:38:10;8.70;;;5.40;;
71513;SDS011;59335;46.652;21.272;2022-09-09T01:41:13;7.97;;;5.28;;
71513;SDS011;59335;46.652;21.272;2022-09-09T01:44:22;8.65;;;5.10;;
71513;SDS011;59335;46.652;21.272;2022-09-09T01:47:27;8.48;;;5.13;;
71513;SDS011;59335;46.652;21.272;2022-09-09T01:50:40;7.07;;;4.72;;
71513;SDS011;59335;46.652;21.272;2022-09-09T01:53:43;6.80;;;4.83;;
71513;SDS011;59335;46.652;21.272;2022-09-09T01:56:56;8.52;;;5.18;;
71513;SDS011;59335;46.652;21.272;2022-09-09T02:00:18;9.18;;;5.30;;
71513;SDS011;59335;46.652;21.272;2022-09-09T02:03:28;7.40;;;4.97;;
71513;SDS011;59335;46.652;21.272;2022-09-09T02:06:43;8.55;;;5.53;;
71513;SDS011;59335;46.652;21.272;2022-09-09T02:10:01;8.17;;;5.13;;
71513;SDS011;59335;46.652;21.272;2022-09-09T02:13:16;9.52;;;5.32;;
71513;SDS011;59335;46.652;21.272;2022-09-09T02:16:32;8.07;;;5.10;;
71513;SDS011;59335;46.652;21.272;2022-09-09T02:19:46;7.85;;;5.03;;
71513;SDS011;59335;46.652;21.272;2022-09-09T02:23:00;8.75;;;5.50;;
71513;SDS011;59335;46.652;21.272;2022-09-09T02:26:05;8.43;;;5.20;;
71513;SDS011;59335;46.652;21.272;2022-09-09T02:29:17;8.15;;;4.80;;
71513;SDS011;59335;46.652;21.272;2022-09-09T02:32:23;8.48;;;5.28;;
71513;SDS011;59335;46.652;21.272;2022-09-09T02:35:27;8.68;;;5.00;;
71513;SDS011;59335;46.652;21.272;2022-09-09T02:38:33;8.15;;;4.85;;
71513;SDS011;59335;46.652;21.272;2022-09-09T02:41:45;7.60;;;5.43;;
71513;SDS011;59335;46.652;21.272;2022-09-09T02:44:50;7.00;;;5.18;;
71513;SDS011;59335;46.652;21.272;2022-09-09T02:51:07;8.25;;;5.03;;
71513;SDS011;59335;46.652;21.272;2022-09-09T02:57:27;7.43;;;4.90;;
71513;SDS011;59335;46.652;21.272;2022-09-09T03:00:33;7.85;;;5.38;;
71513;SDS011;59335;46.652;21.272;2022-09-09T03:03:38;8.75;;;5.10;;
71513;SDS011;59335;46.652;21.272;2022-09-09T03:06:45;8.45;;;5.38;;
71513;SDS011;59335;46.652;21.272;2022-09-09T03:09:54;9.23;;;5.78;;
71513;SDS011;59335;46.652;21.272;2022-09-09T03:13:00;7.57;;;5.20;;
71513;SDS011;59335;46.652;21.272;2022-09-09T03:16:07;6.55;;;4.75;;
71513;SDS011;59335;46.652;21.272;2022-09-09T03:19:16;7.60;;;5.18;;
71513;SDS011;59335;46.652;21.272;2022-09-09T03:22:18;7.28;;;4.65;;
71513;SDS011;59335;46.652;21.272;2022-09-09T03:25:21;8.05;;;4.68;;
71513;SDS011;59335;46.652;21.272;2022-09-09T03:28:30;8.67;;;5.03;;
71513;SDS011;59335;46.652;21.272;2022-09-09T03:31:35;7.45;;;4.78;;
71513;SDS011;59335;46.652;21.272;2022-09-09T03:34:38;7.50;;;5.40;;
71513;SDS011;59335;46.652;21.272;2022-09-09T03:37:45;7.78;;;4.78;;
71513;SDS011;59335;46.652;21.272;2022-09-09T03:40:52;7.47;;;5.00;;
71513;SDS011;59335;46.652;21.272;2022-09-09T03:44:04;6.97;;;4.80;;
71513;SDS011;59335;46.652;21.272;2022-09-09T03:47:13;9.90;;;5.22;;
71513;SDS011;59335;46.652;21.272;2022-09-09T03:50:16;8.15;;;5.07;;
71513;SDS011;59335;46.652;21.272;2022-09-09T03:53:23;8.02;;;4.68;;
71513;SDS011;59335;46.652;21.272;2022-09-09T03:56:28;8.23;;;5.00;;
71513;SDS011;59335;46.652;21.272;2022-09-09T03:59:31;7.30;;;4.77;;
71513;SDS011;59335;46.652;21.272;2022-09-09T04:02:34;7.72;;;5.22;;
71513;SDS011;59335;46.652;21.272;2022-09-09T04:05:39;6.63;;;4.80;;
71513;SDS011;59335;46.652;21.272;2022-09-09T04:08:45;6.60;;;4.80;;
71513;SDS011;59335;46.652;21.272;2022-09-09T04:11:51;6.93;;;5.00;;
71513;SDS011;59335;46.652;21.272;2022-09-09T04:14:55;7.33;;;4.83;;
71513;SDS011;59335;46.652;21.272;2022-09-09T04:17:59;8.25;;;5.50;;
71513;SDS011;59335;46.652;21.272;2022-09-09T04:21:02;7.25;;;4.90;;
71513;SDS011;59335;46.652;21.272;2022-09-09T04:24:07;7.90;;;4.85;;
71513;SDS011;59335;46.652;21.272;2022-09-09T04:27:11;6.97;;;4.88;;
71513;SDS011;59335;46.652;21.272;2022-09-09T04:30:15;7.83;;;5.17;;
71513;SDS011;59335;46.652;21.272;2022-09-09T04:33:19;8.50;;;4.85;;
71513;SDS011;59335;46.652;21.272;2022-09-09T04:36:23;6.80;;;4.72;;
71513;SDS011;59335;46.652;21.272;2022-09-09T04:39:29;6.55;;;4.40;;
71513;SDS011;59335;46.652;21.272;2022-09-09T04:42:35;7.97;;;4.85;;
71513;SDS011;59335;46.652;21.272;2022-09-09T04:45:38;6.80;;;5.03;;
71513;SDS011;59335;46.652;21.272;2022-09-09T04:48:42;8.10;;;4.63;;
71513;SDS011;59335;46.652;21.272;2022-09-09T04:51:46;7.35;;;4.75;;
71513;SDS011;59335;46.652;21.272;2022-09-09T04:54:52;7.10;;;4.70;;
71513;SDS011;59335;46.652;21.272;2022-09-09T04:57:56;7.95;;;5.00;;
71513;SDS011;59335;46.652;21.272;2022-09-09T05:01:03;7.40;;;4.93;;
71513;SDS011;59335;46.652;21.272;2022-09-09T05:04:07;9.13;;;5.95;;
71513;SDS011;59335;46.652;21.272;2022-09-09T05:07:11;7.25;;;5.18;;
71513;SDS011;59335;46.652;21.272;2022-09-09T05:10:15;8.00;;;5.07;;
71513;SDS011;59335;46.652;21.272;2022-09-09T05:13:21;9.30;;;5.85;;
71513;SDS011;59335;46.652;21.272;2022-09-09T05:16:24;10.27;;;6.17;;
71513;SDS011;59335;46.652;21.272;2022-09-09T05:19:29;10.77;;;6.38;;
71513;SDS011;59335;46.652;21.272;2022-09-09T05:22:32;10.63;;;6.70;;
71513;SDS011;59335;46.652;21.272;2022-09-09T05:25:37;11.20;;;7.05;;
71513;SDS011;59335;46.652;21.272;2022-09-09T05:28:40;10.48;;;7.03;;
71513;SDS011;59335;46.652;21.272;2022-09-09T05:31:42;9.90;;;7.00;;
71513;SDS011;59335;46.652;21.272;2022-09-09T05:34:49;14.05;;;7.38;;
71513;SDS011;59335;46.652;21.272;2022-09-09T05:37:52;11.88;;;7.13;;
71513;SDS011;59335;46.652;21.272;2022-09-09T05:40:55;11.48;;;7.32;;
71513;SDS011;59335;46.652;21.272;2022-09-09T05:43:59;12.18;;;7.35;;
71513;SDS011;59335;46.652;21.272;2022-09-09T05:47:03;9.17;;;6.90;;
71513;SDS011;59335;46.652;21.272;2022-09-09T05:50:06;12.60;;;6.95;;
71513;SDS011;59335;46.652;21.272;2022-09-09T05:53:10;10.55;;;7.05;;
71513;SDS011;59335;46.652;21.272;2022-09-09T05:56:14;11.48;;;6.85;;
71513;SDS011;59335;46.652;21.272;2022-09-09T05:59:18;11.52;;;6.72;;
71513;SDS011;59335;46.652;21.272;2022-09-09T06:02:24;11.37;;;7.30;;
71513;SDS011;59335;46.652;21.272;2022-09-09T06:05:27;12.63;;;6.60;;
71513;SDS011;59335;46.652;21.272;2022-09-09T06:08:32;11.25;;;6.80;;
71513;SDS011;59335;46.652;21.272;2022-09-09T06:11:38;9.88;;;6.75;;
71513;SDS011;59335;46.652;21.272;2022-09-09T06:14:41;10.23;;;6.80;;
71513;SDS011;59335;46.652;21.272;2022-09-09T06:17:53;11.07;;;7.07;;
71513;SDS011;59335;46.652;21.272;2022-09-09T06:20:58;10.63;;;7.68;;
71513;SDS011;59335;46.652;21.272;2022-09-09T06:24:09;12.10;;;7.10;;
71513;SDS011;59335;46.652;21.272;2022-09-09T06:27:14;10.27;;;6.70;;
71513;SDS011;59335;46.652;21.272;2022-09-09T06:30:17;9.48;;;6.82;;
71513;SDS011;59335;46.652;21.272;2022-09-09T06:33:20;12.37;;;7.00;;
71513;SDS011;59335;46.652;21.272;2022-09-09T06:36:23;13.00;;;7.70;;
71513;SDS011;59335;46.652;21.272;2022-09-09T06:39:29;12.88;;;7.38;;
71513;SDS011;59335;46.652;21.272;2022-09-09T06:42:32;9.95;;;7.03;;
71513;SDS011;59335;46.652;21.272;2022-09-09T06:49:11;12.27;;;7.53;;
71513;SDS011;59335;46.652;21.272;2022-09-09T06:52:15;12.10;;;7.45;;
71513;SDS011;59335;46.652;21.272;2022-09-09T06:55:21;12.90;;;7.28;;
71513;SDS011;59335;46.652;21.272;2022-09-09T06:58:24;10.40;;;7.57;;
71513;SDS011;59335;46.652;21.272;2022-09-09T07:01:30;10.63;;;7.22;;
71513;SDS011;59335;46.652;21.272;2022-09-09T07:04:37;11.17;;;7.63;;
71513;SDS011;59335;46.652;21.272;2022-09-09T07:07:40;11.57;;;7.82;;
71513;SDS011;59335;46.652;21.272;2022-09-09T07:10:46;10.57;;;6.70;;
71513;SDS011;59335;46.652;21.272;2022-09-09T07:13:53;16.42;;;8.60;;
71513;SDS011;59335;46.652;21.272;2022-09-09T07:16:56;12.98;;;7.82;;
71513;SDS011;59335;46.652;21.272;2022-09-09T07:20:03;12.90;;;7.20;;
71513;SDS011;59335;46.652;21.272;2022-09-09T07:23:09;9.85;;;7.13;;
71513;SDS011;59335;46.652;21.272;2022-09-09T07:26:13;9.82;;;6.70;;
71513;SDS011;59335;46.652;21.272;2022-09-09T07:29:19;16.40;;;7.32;;
71513;SDS011;59335;46.652;21.272;2022-09-09T07:32:24;12.75;;;7.22;;
71513;SDS011;59335;46.652;21.272;2022-09-09T07:35:27;12.27;;;7.57;;
71513;SDS011;59335;46.652;21.272;2022-09-09T07:38:31;11.23;;;7.43;;
71513;SDS011;59335;46.652;21.272;2022-09-09T07:41:36;10.95;;;7.55;;
71513;SDS011;59335;46.652;21.272;2022-09-09T07:44:42;10.95;;;7.40;;
71513;SDS011;59335;46.652;21.272;2022-09-09T07:47:51;10.95;;;7.38;;
71513;SDS011;59335;46.652;21.272;2022-09-09T07:51:06;11.83;;;7.60;;
71513;SDS011;59335;46.652;21.272;2022-09-09T07:54:15;12.27;;;7.35;;
71513;SDS011;59335;46.652;21.272;2022-09-09T07:57:19;12.07;;;7.38;;
71513;SDS011;59335;46.652;21.272;2022-09-09T08:00:25;13.57;;;7.13;;
71513;SDS011;59335;46.652;21.272;2022-09-09T08:03:34;12.63;;;7.75;;
71513;SDS011;59335;46.652;21.272;2022-09-09T08:06:42;11.47;;;7.30;;
71513;SDS011;59335;46.652;21.272;2022-09-09T08:09:51;11.73;;;7.57;;
71513;SDS011;59335;46.652;21.272;2022-09-09T08:12:58;10.95;;;7.10;;
71513;SDS011;59335;46.652;21.272;2022-09-09T08:16:20;19.42;;;8.18;;
71513;SDS011;59335;46.652;21.272;2022-09-09T08:19:28;10.68;;;7.40;;
71513;SDS011;59335;46.652;21.272;2022-09-09T08:22:37;13.13;;;7.13;;
71513;SDS011;59335;46.652;21.272;2022-09-09T08:25:40;12.05;;;7.80;;
71513;SDS011;59335;46.652;21.272;2022-09-09T08:28:44;13.15;;;8.48;;
71513;SDS011;59335;46.652;21.272;2022-09-09T08:31:55;11.07;;;7.40;;
71513;SDS011;59335;46.652;21.272;2022-09-09T08:35:01;12.73;;;8.40;;
71513;SDS011;59335;46.652;21.272;2022-09-09T08:38:09;10.83;;;8.00;;
71513;SDS011;59335;46.652;21.272;2022-09-09T08:51:21;12.55;;;8.02;;
71513;SDS011;59335;46.652;21.272;2022-09-09T08:54:30;11.30;;;8.03;;
71513;SDS011;59335;46.652;21.272;2022-09-09T08:57:55;13.07;;;8.27;;
71513;SDS011;59335;46.652;21.272;2022-09-09T09:07:56;15.25;;;8.60;;
71513;SDS011;59335;46.652;21.272;2022-09-09T09:11:09;10.13;;;7.77;;
71513;SDS011;59335;46.652;21.272;2022-09-09T09:14:16;13.13;;;7.78;;
71513;SDS011;59335;46.652;21.272;2022-09-09T09:17:35;12.50;;;8.43;;
71513;SDS011;59335;46.652;21.272;2022-09-09T09:23:59;11.10;;;7.93;;
71513;SDS011;59335;46.652;21.272;2022-09-09T09:27:13;10.57;;;7.73;;
71513;SDS011;59335;46.652;21.272;2022-09-09T09:30:44;10.60;;;7.32;;
71513;SDS011;59335;46.652;21.272;2022-09-09T09:33:57;11.70;;;7.80;;
71513;SDS011;59335;46.652;21.272;2022-09-09T09:37:11;11.13;;;7.80;;
71513;SDS011;59335;46.652;21.272;2022-09-09T09:40:21;10.63;;;7.60;;
71513;SDS011;59335;46.652;21.272;2022-09-09T09:43:30;10.00;;;7.60;;
71513;SDS011;59335;46.652;21.272;2022-09-09T09:47:08;11.60;;;7.85;;
71513;SDS011;59335;46.652;21.272;2022-09-09T09:50:28;11.05;;;7.57;;
71513;SDS011;59335;46.652;21.272;2022-09-09T09:53:35;12.40;;;7.22;;
71513;SDS011;59335;46.652;21.272;2022-09-09T09:56:44;10.43;;;7.32;;
71513;SDS011;59335;46.652;21.272;2022-09-09T09:59:48;17.23;;;8.10;;
71513;SDS011;59335;46.652;21.272;2022-09-09T10:02:59;19.15;;;8.32;;
71513;SDS011;59335;46.652;21.272;2022-09-09T10:06:06;13.75;;;8.48;;
71513;SDS011;59335;46.652;21.272;2022-09-09T10:09:25;14.40;;;8.20;;
71513;SDS011;59335;46.652;21.272;2022-09-09T10:19:29;14.27;;;8.63;;
71513;SDS011;59335;46.652;21.272;2022-09-09T10:22:32;11.77;;;8.02;;
71513;SDS011;59335;46.652;21.272;2022-09-09T10:28:51;13.13;;;8.23;;
71513;SDS011;59335;46.652;21.272;2022-09-09T10:42:45;11.45;;;8.00;;
71513;SDS011;59335;46.652;21.272;2022-09-09T10:52:38;12.02;;;7.75;;
71513;SDS011;59335;46.652;21.272;2022-09-09T10:55:48;13.93;;;7.55;;
71513;SDS011;59335;46.652;21.272;2022-09-09T10:59:06;14.35;;;7.32;;
71513;SDS011;59335;46.652;21.272;2022-09-09T11:02:16;13.75;;;7.75;;
71513;SDS011;59335;46.652;21.272;2022-09-09T11:05:39;11.13;;;6.97;;
71513;SDS011;59335;46.652;21.272;2022-09-09T11:08:47;10.20;;;7.30;;
71513;SDS011;59335;46.652;21.272;2022-09-09T11:11:58;12.02;;;7.10;;
71513;SDS011;59335;46.652;21.272;2022-09-09T11:15:08;10.70;;;7.60;;
71513;SDS011;59335;46.652;21.272;2022-09-09T11:18:19;11.40;;;7.25;;
71513;SDS011;59335;46.652;21.272;2022-09-09T11:21:31;10.43;;;6.57;;
71513;SDS011;59335;46.652;21.272;2022-09-09T11:24:41;11.63;;;6.88;;
71513;SDS011;59335;46.652;21.272;2022-09-09T11:38:37;12.37;;;6.10;;
71513;SDS011;59335;46.652;21.272;2022-09-09T11:41:50;9.55;;;5.85;;
71513;SDS011;59335;46.652;21.272;2022-09-09T11:44:52;10.25;;;5.70;;
71513;SDS011;59335;46.652;21.272;2022-09-09T11:48:00;9.68;;;5.57;;
71513;SDS011;59335;46.652;21.272;2022-09-09T11:51:07;10.68;;;5.95;;
71513;SDS011;59335;46.652;21.272;2022-09-09T11:54:28;11.40;;;5.70;;
71513;SDS011;59335;46.652;21.272;2022-09-09T11:57:36;9.25;;;5.50;;
71513;SDS011;59335;46.652;21.272;2022-09-09T12:00:40;7.68;;;5.15;;
71513;SDS011;59335;46.652;21.272;2022-09-09T12:03:50;8.93;;;5.13;;
71513;SDS011;59335;46.652;21.272;2022-09-09T12:06:59;9.73;;;5.32;;
71513;SDS011;59335;46.652;21.272;2022-09-09T12:13:20;9.98;;;5.20;;
71513;SDS011;59335;46.652;21.272;2022-09-09T12:16:34;11.10;;;4.90;;
71513;SDS011;59335;46.652;21.272;2022-09-09T12:19:40;9.60;;;4.68;;
71513;SDS011;59335;46.652;21.272;2022-09-09T12:29:43;7.82;;;4.35;;
71513;SDS011;59335;46.652;21.272;2022-09-09T12:32:48;8.00;;;4.00;;
71513;SDS011;59335;46.652;21.272;2022-09-09T12:36:03;8.18;;;4.03;;
71513;SDS011;59335;46.652;21.272;2022-09-09T12:42:47;11.30;;;4.47;;
71513;SDS011;59335;46.652;21.272;2022-09-09T12:46:00;8.63;;;3.80;;
71513;SDS011;59335;46.652;21.272;2022-09-09T12:49:18;8.07;;;4.10;;
71513;SDS011;59335;46.652;21.272;2022-09-09T12:52:34;6.90;;;4.10;;
71513;SDS011;59335;46.652;21.272;2022-09-09T12:55:48;8.80;;;4.00;;
71513;SDS011;59335;46.652;21.272;2022-09-09T12:58:52;6.07;;;3.60;;
71513;SDS011;59335;46.652;21.272;2022-09-09T13:01:58;9.65;;;4.43;;
71513;SDS011;59335;46.652;21.272;2022-09-09T13:08:27;8.75;;;3.90;;
71513;SDS011;59335;46.652;21.272;2022-09-09T13:11:42;7.97;;;4.00;;
71513;SDS011;59335;46.652;21.272;2022-09-09T13:14:52;10.57;;;3.90;;
71513;SDS011;59335;46.652;21.272;2022-09-09T13:17:59;25.58;;;4.88;;
71513;SDS011;59335;46.652;21.272;2022-09-09T13:21:06;14.50;;;3.88;;
71513;SDS011;59335;46.652;21.272;2022-09-09T13:24:26;8.70;;;3.47;;
71513;SDS011;59335;46.652;21.272;2022-09-09T13:27:32;7.80;;;2.97;;
71513;SDS011;59335;46.652;21.272;2022-09-09T13:30:41;8.43;;;3.43;;
71513;SDS011;59335;46.652;21.272;2022-09-09T13:33:45;9.95;;;3.20;;
71513;SDS011;59335;46.652;21.272;2022-09-09T13:36:51;8.68;;;3.38;;
71513;SDS011;59335;46.652;21.272;2022-09-09T13:40:00;8.75;;;3.38;;
71513;SDS011;59335;46.652;21.272;2022-09-09T13:43:04;10.15;;;2.80;;
71513;SDS011;59335;46.652;21.272;2022-09-09T13:46:24;7.87;;;3.00;;
71513;SDS011;59335;46.652;21.272;2022-09-09T13:49:42;8.88;;;2.80;;
71513;SDS011;59335;46.652;21.272;2022-09-09T13:52:45;7.78;;;2.58;;
71513;SDS011;59335;46.652;21.272;2022-09-09T13:55:50;7.25;;;2.70;;
71513;SDS011;59335;46.652;21.272;2022-09-09T13:58:54;8.00;;;2.53;;
71513;SDS011;59335;46.652;21.272;2022-09-09T14:01:57;4.17;;;2.30;;
71513;SDS011;59335;46.652;21.272;2022-09-09T14:05:00;7.45;;;2.60;;
71513;SDS011;59335;46.652;21.272;2022-09-09T14:08:03;4.90;;;2.13;;
71513;SDS011;59335;46.652;21.272;2022-09-09T14:11:08;4.32;;;1.95;;
71513;SDS011;59335;46.652;21.272;2022-09-09T14:14:14;7.40;;;2.22;;
71513;SDS011;59335;46.652;21.272;2022-09-09T14:17:17;6.20;;;2.20;;
71513;SDS011;59335;46.652;21.272;2022-09-09T14:20:20;4.95;;;2.03;;
71513;SDS011;59335;46.652;21.272;2022-09-09T14:23:23;6.50;;;2.28;;
71513;SDS011;59335;46.652;21.272;2022-09-09T14:26:26;4.78;;;2.10;;
71513;SDS011;59335;46.652;21.272;2022-09-09T14:29:30;5.03;;;2.30;;
71513;SDS011;59335;46.652;21.272;2022-09-09T14:32:35;3.63;;;2.10;;
71513;SDS011;59335;46.652;21.272;2022-09-09T14:35:38;5.07;;;2.15;;
71513;SDS011;59335;46.652;21.272;2022-09-09T14:38:43;6.10;;;2.70;;
71513;SDS011;59335;46.652;21.272;2022-09-09T14:41:45;5.68;;;2.85;;
71513;SDS011;59335;46.652;21.272;2022-09-09T14:44:48;5.60;;;2.33;;
71513;SDS011;59335;46.652;21.272;2022-09-09T14:47:51;3.83;;;2.27;;
71513;SDS011;59335;46.652;21.272;2022-09-09T14:50:54;5.15;;;2.10;;
71513;SDS011;59335;46.652;21.272;2022-09-09T14:53:58;5.85;;;2.40;;
71513;SDS011;59335;46.652;21.272;2022-09-09T14:57:01;3.58;;;1.83;;
71513;SDS011;59335;46.652;21.272;2022-09-09T15:00:04;4.78;;;2.10;;
71513;SDS011;59335;46.652;21.272;2022-09-09T15:03:08;3.30;;;1.87;;
71513;SDS011;59335;46.652;21.272;2022-09-09T15:06:13;4.63;;;2.13;;
71513;SDS011;59335;46.652;21.272;2022-09-09T15:09:16;4.85;;;2.10;;
71513;SDS011;59335;46.652;21.272;2022-09-09T15:12:19;6.10;;;2.20;;
71513;SDS011;59335;46.652;21.272;2022-09-09T15:15:22;7.30;;;2.20;;
71513;SDS011;59335;46.652;21.272;2022-09-09T15:18:24;9.97;;;2.60;;
71513;SDS011;59335;46.652;21.272;2022-09-09T15:21:28;10.35;;;2.70;;
71513;SDS011;59335;46.652;21.272;2022-09-09T15:24:33;6.22;;;2.13;;
71513;SDS011;59335;46.652;21.272;2022-09-09T15:27:36;6.65;;;2.50;;
71513;SDS011;59335;46.652;21.272;2022-09-09T15:30:41;7.57;;;2.60;;
71513;SDS011;59335;46.652;21.272;2022-09-09T15:34:18;7.07;;;2.20;;
71513;SDS011;59335;46.652;21.272;2022-09-09T15:37:13;7.82;;;2.55;;
71513;SDS011;59335;46.652;21.272;2022-09-09T15:40:16;7.05;;;2.58;;
71513;SDS011;59335;46.652;21.272;2022-09-09T15:43:18;7.65;;;2.95;;
71513;SDS011;59335;46.652;21.272;2022-09-09T15:46:25;8.65;;;2.78;;
71513;SDS011;59335;46.652;21.272;2022-09-09T15:49:29;7.33;;;2.50;;
71513;SDS011;59335;46.652;21.272;2022-09-09T15:52:32;7.55;;;2.70;;
71513;SDS011;59335;46.652;21.272;2022-09-09T15:55:35;7.00;;;2.55;;
71513;SDS011;59335;46.652;21.272;2022-09-09T15:58:38;10.23;;;2.88;;
71513;SDS011;59335;46.652;21.272;2022-09-09T16:01:40;6.63;;;2.50;;
71513;SDS011;59335;46.652;21.272;2022-09-09T16:04:44;8.57;;;2.57;;
71513;SDS011;59335;46.652;21.272;2022-09-09T16:07:47;7.50;;;2.55;;
71513;SDS011;59335;46.652;21.272;2022-09-09T16:10:50;6.93;;;2.60;;
71513;SDS011;59335;46.652;21.272;2022-09-09T16:13:53;6.70;;;2.58;;
71513;SDS011;59335;46.652;21.272;2022-09-09T16:16:57;6.28;;;2.58;;
71513;SDS011;59335;46.652;21.272;2022-09-09T16:19:59;6.47;;;2.60;;
71513;SDS011;59335;46.652;21.272;2022-09-09T16:23:02;9.57;;;2.83;;
71513;SDS011;59335;46.652;21.272;2022-09-09T16:26:04;8.20;;;2.83;;
71513;SDS011;59335;46.652;21.272;2022-09-09T16:29:07;6.80;;;2.65;;
71513;SDS011;59335;46.652;21.272;2022-09-09T16:32:10;6.43;;;2.47;;
71513;SDS011;59335;46.652;21.272;2022-09-09T16:35:14;8.93;;;2.70;;
71513;SDS011;59335;46.652;21.272;2022-09-09T16:38:16;7.97;;;2.58;;
71513;SDS011;59335;46.652;21.272;2022-09-09T16:41:19;7.22;;;2.70;;
71513;SDS011;59335;46.652;21.272;2022-09-09T16:44:22;7.78;;;3.17;;
71513;SDS011;59335;46.652;21.272;2022-09-09T16:47:24;6.15;;;2.55;;
71513;SDS011;59335;46.652;21.272;2022-09-09T16:50:27;5.47;;;2.50;;
71513;SDS011;59335;46.652;21.272;2022-09-09T16:53:29;6.20;;;2.53;;
71513;SDS011;59335;46.652;21.272;2022-09-09T16:56:33;6.55;;;2.50;;
71513;SDS011;59335;46.652;21.272;2022-09-09T16:59:39;7.45;;;2.92;;
71513;SDS011;59335;46.652;21.272;2022-09-09T17:02:43;7.00;;;2.60;;
71513;SDS011;59335;46.652;21.272;2022-09-09T17:05:47;7.53;;;2.80;;
71513;SDS011;59335;46.652;21.272;2022-09-09T17:08:59;6.13;;;2.47;;
71513;SDS011;59335;46.652;21.272;2022-09-09T17:12:04;6.82;;;2.65;;
71513;SDS011;59335;46.652;21.272;2022-09-09T17:15:07;5.95;;;2.60;;
71513;SDS011;59335;46.652;21.272;2022-09-09T17:18:10;6.53;;;2.58;;
71513;SDS011;59335;46.652;21.272;2022-09-09T17:21:14;5.20;;;2.60;;
71513;SDS011;59335;46.652;21.272;2022-09-09T17:24:20;6.75;;;2.60;;
71513;SDS011;59335;46.652;21.272;2022-09-09T17:27:23;7.10;;;2.72;;
71513;SDS011;59335;46.652;21.272;2022-09-09T17:30:26;8.02;;;3.20;;
71513;SDS011;59335;46.652;21.272;2022-09-09T17:33:29;5.85;;;3.22;;
71513;SDS011;59335;46.652;21.272;2022-09-09T17:36:33;6.10;;;2.70;;
71513;SDS011;59335;46.652;21.272;2022-09-09T17:39:37;7.95;;;2.85;;
71513;SDS011;59335;46.652;21.272;2022-09-09T17:42:39;4.95;;;2.80;;
71513;SDS011;59335;46.652;21.272;2022-09-09T17:45:43;5.35;;;2.50;;
71513;SDS011;59335;46.652;21.272;2022-09-09T17:48:49;6.10;;;2.88;;
71513;SDS011;59335;46.652;21.272;2022-09-09T17:51:53;4.03;;;2.37;;
71513;SDS011;59335;46.652;21.272;2022-09-09T17:54:57;5.88;;;3.03;;
71513;SDS011;59335;46.652;21.272;2022-09-09T17:58:00;5.95;;;2.70;;
71513;SDS011;59335;46.652;21.272;2022-09-09T18:01:03;5.80;;;2.55;;
71513;SDS011;59335;46.652;21.272;2022-09-09T18:04:12;6.15;;;3.10;;
71513;SDS011;59335;46.652;21.272;2022-09-09T18:07:16;6.10;;;2.90;;
71513;SDS011;59335;46.652;21.272;2022-09-09T18:10:19;8.10;;;3.42;;
71513;SDS011;59335;46.652;21.272;2022-09-09T18:13:21;6.70;;;2.95;;
71513;SDS011;59335;46.652;21.272;2022-09-09T18:16:24;6.45;;;2.95;;
71513;SDS011;59335;46.652;21.272;2022-09-09T18:19:29;5.65;;;2.88;;
71513;SDS011;59335;46.652;21.272;2022-09-09T18:22:34;5.97;;;2.90;;
71513;SDS011;59335;46.652;21.272;2022-09-09T18:25:39;5.63;;;3.05;;
71513;SDS011;59335;46.652;21.272;2022-09-09T18:28:43;6.47;;;2.83;;
71513;SDS011;59335;46.652;21.272;2022-09-09T18:31:51;6.90;;;3.17;;
71513;SDS011;59335;46.652;21.272;2022-09-09T18:34:56;5.53;;;2.90;;
71513;SDS011;59335;46.652;21.272;2022-09-09T18:38:00;5.50;;;2.97;;
71513;SDS011;59335;46.652;21.272;2022-09-09T18:44:23;7.70;;;3.22;;
71513;SDS011;59335;46.652;21.272;2022-09-09T18:47:27;5.25;;;3.30;;
71513;SDS011;59335;46.652;21.272;2022-09-09T18:50:30;6.15;;;3.38;;
71513;SDS011;59335;46.652;21.272;2022-09-09T18:53:35;6.77;;;3.40;;
71513;SDS011;59335;46.652;21.272;2022-09-09T18:56:39;6.97;;;3.30;;
71513;SDS011;59335;46.652;21.272;2022-09-09T18:59:42;7.43;;;3.10;;
71513;SDS011;59335;46.652;21.272;2022-09-09T19:02:47;8.07;;;3.65;;
71513;SDS011;59335;46.652;21.272;2022-09-09T19:05:59;5.68;;;3.25;;
71513;SDS011;59335;46.652;21.272;2022-09-09T19:09:12;6.73;;;3.00;;
71513;SDS011;59335;46.652;21.272;2022-09-09T19:12:16;6.50;;;3.10;;
71513;SDS011;59335;46.652;21.272;2022-09-09T19:15:19;5.82;;;3.25;;
71513;SDS011;59335;46.652;21.272;2022-09-09T19:18:22;5.60;;;3.30;;
71513;SDS011;59335;46.652;21.272;2022-09-09T19:21:29;6.85;;;3.55;;
71513;SDS011;59335;46.652;21.272;2022-09-09T19:24:35;8.60;;;3.30;;
71513;SDS011;59335;46.652;21.272;2022-09-09T19:27:38;6.30;;;3.45;;
71513;SDS011;59335;46.652;21.272;2022-09-09T19:30:41;6.95;;;3.70;;
71513;SDS011;59335;46.652;21.272;2022-09-09T19:33:49;6.30;;;3.30;;
71513;SDS011;59335;46.652;21.272;2022-09-09T19:36:54;5.82;;;3.28;;
71513;SDS011;59335;46.652;21.272;2022-09-09T19:39:56;5.83;;;3.47;;
71513;SDS011;59335;46.652;21.272;2022-09-09T19:42:59;6.72;;;3.40;;
71513;SDS011;59335;46.652;21.272;2022-09-09T19:46:03;6.43;;;3.22;;
71513;SDS011;59335;46.652;21.272;2022-09-09T19:49:08;6.93;;;3.70;;
71513;SDS011;59335;46.652;21.272;2022-09-09T19:52:11;6.50;;;3.58;;
71513;SDS011;59335;46.652;21.272;2022-09-09T19:55:13;5.27;;;3.40;;
71513;SDS011;59335;46.652;21.272;2022-09-09T19:58:16;8.02;;;3.60;;
71513;SDS011;59335;46.652;21.272;2022-09-09T20:01:29;5.82;;;3.70;;
71513;SDS011;59335;46.652;21.272;2022-09-09T20:04:40;6.82;;;3.47;;
71513;SDS011;59335;46.652;21.272;2022-09-09T20:07:44;6.38;;;3.45;;
71513;SDS011;59335;46.652;21.272;2022-09-09T20:10:51;5.77;;;3.60;;
71513;SDS011;59335;46.652;21.272;2022-09-09T20:13:55;7.28;;;4.43;;
71513;SDS011;59335;46.652;21.272;2022-09-09T20:16:58;8.27;;;3.72;;
71513;SDS011;59335;46.652;21.272;2022-09-09T20:20:00;6.13;;;3.55;;
71513;SDS011;59335;46.652;21.272;2022-09-09T20:23:06;5.82;;;3.45;;
71513;SDS011;59335;46.652;21.272;2022-09-09T20:26:12;6.80;;;4.00;;
71513;SDS011;59335;46.652;21.272;2022-09-09T20:29:16;7.47;;;3.78;;